レイキャビク/ケフラヴィーク の空港の天気 - METARとTAF

ケフラヴィーク国際空港 ( BIKF / KEF ) - アイスランド ケプラヴィーク
飛行場実況気象(Metar)
観測時間05/25 03:00 GMT (05/25 03:00 UTC)
風向・風速南南東 5m/s
視程10km以上
天気現象周辺でしゅう雨
少しの雲 雲底高度 580m
全天の4割程度の雲 雲底高度 730m
全天の8割程度の雲 雲底高度 850m
気温4℃
湿度93%
気圧1015hPa
METARBIKF 250300Z 15010KT 9999 VCSH FEW019 SCT024 BKN028 04/03 Q1015
過去の天気等 Google飛行場航空写真 Wunderground天気予報

過去48時間のMETAR

飛行場予報(TAF)
発表時間: 5/25 01:00 GMT (5/25 01:00 UTC)
予報対象時間: 25日3時 GMT ~ 26日3時 GMT
風向・風速南 6m/s
視程10km以上
天気現象弱いしゅう雨
少しの雲 雲底高度 610m
全天の8割程度の雲 雲底高度 910m
25日3時 GMT ~ 25日5時 GMT に徐々に
風向・風速西南西 9m/s
25日11時 GMT ~ 25日14時 GMT に徐々に
風向・風速南 8m/s
25日18時 GMT ~ 25日21時 GMT に徐々に
風向・風速南南東 13m/s 瞬間風速 18m/s
視程8,000m
天気現象
全天の8割程度の雲 雲底高度 240m
全天を覆う雲 雲底高度 460m
25日23時 GMT ~ 26日3時 GMT に一時的に
風向・風速南東 15m/s 瞬間風速 23m/s
TAF BIKF 250100Z 2503/2603 18012KT 9999 -SHRA FEW020 BKN030 TX08/2515Z TN03/2506Z
BECMG 2503/2505 24018KT
BECMG 2511/2514 17016KT
BECMG 2518/2521 15025G35KT 8000 RA BKN008 OVC015
TEMPO 2523/2603 14030G45KT